Weather at Pahute Mesa Airstrip

Public forecast

Using degrees Fahrenheit for public forecast. Weather courtesy of forecast.io.

Closest aviation weather report (METAR) to Pahute Mesa Airstrip

Closest report is Desert Rock Airport, 32.0 nm (59.2 km) SSE. Retrieved 2021/05/06 18:53 UTC (28 minutes ago):

KDRA 061853Z AUTO 21019G30KT 10SM CLR 32/M07 A3003 RMK AO2 PK WND 21034/1842 SLP117 T03171072

Closest aviation forecast (TAF) to Pahute Mesa Airstrip

Forecast is more than 12 hours old.

Closest forecast is Desert Rock Airport, 32.0 nm (59.2 km) SSE. Retrieved 2011/12/07 06:36 UTC (9 years ago):

TAF KDRA 070532Z 0706/0806 VRB04KT P6SM SKC